createdAt,value
2023-11-22T00:00:00.238Z,3.90
2023-11-22T00:02:30.118Z,4.50
2023-11-22T00:04:58.217Z,4.40
2023-11-22T00:07:25.652Z,4.20
2023-11-22T00:09:53.781Z,5.23
2023-11-22T00:12:21.058Z,4.43
2023-11-22T00:14:48.733Z,4.87
2023-11-22T00:17:20.844Z,5.20
2023-11-22T00:19:48.832Z,4.90
2023-11-22T00:22:16.418Z,5.23
2023-11-22T00:24:46.865Z,4.97
2023-11-22T00:27:16.522Z,4.90
2023-11-22T00:29:48.491Z,4.70
2023-11-22T00:32:16.112Z,5.80
2023-11-22T00:34:43.729Z,5.20
2023-11-22T00:37:12.200Z,5.50
2023-11-22T00:39:39.775Z,4.90
2023-11-22T00:42:08.067Z,5.33
2023-11-22T00:44:37.190Z,5.70
2023-11-22T00:47:07.478Z,5.03
2023-11-22T00:49:35.836Z,5.10
2023-11-22T00:52:04.405Z,5.80
2023-11-22T00:54:33.767Z,5.30
2023-11-22T00:57:01.552Z,6.60
2023-11-22T00:59:29.149Z,5.60
2023-11-22T01:01:56.758Z,5.40
2023-11-22T01:04:24.392Z,6.63
2023-11-22T01:06:52.170Z,5.67
2023-11-22T01:09:19.513Z,6.40
2023-11-22T01:11:46.881Z,6.17
2023-11-22T01:14:14.567Z,6.90
2023-11-22T01:16:44.413Z,7.00
2023-11-22T01:19:12.924Z,5.90
2023-11-22T01:21:40.955Z,6.13
2023-11-22T01:24:09.961Z,6.60
2023-11-22T01:26:39.177Z,7.07
2023-11-22T01:29:08.092Z,7.30
2023-11-22T01:31:35.344Z,6.77
2023-11-22T01:34:06.378Z,6.50
2023-11-22T01:36:35.471Z,6.30
2023-11-22T01:39:05.683Z,7.30
2023-11-22T01:41:33.599Z,7.63
2023-11-22T01:44:01.086Z,6.40
2023-11-22T01:46:28.658Z,7.50
2023-11-22T01:48:56.825Z,7.20
2023-11-22T01:51:25.978Z,7.10
2023-11-22T01:53:54.926Z,6.60
2023-11-22T01:56:23.229Z,7.27
2023-11-22T01:58:51.758Z,6.70
2023-11-22T02:01:20.196Z,7.17
2023-11-22T02:03:49.983Z,6.37
2023-11-22T02:06:17.741Z,6.80
2023-11-22T02:08:45.463Z,7.67
2023-11-22T02:11:12.991Z,6.70
2023-11-22T02:13:40.443Z,6.13
2023-11-22T02:16:07.760Z,6.80
2023-11-22T02:18:36.045Z,6.80
2023-11-22T02:21:03.713Z,6.80
2023-11-22T02:23:32.180Z,5.93
2023-11-22T02:26:00.018Z,6.67
2023-11-22T02:28:27.724Z,5.87
2023-11-22T02:30:55.579Z,6.87
2023-11-22T02:33:23.870Z,6.30
2023-11-22T02:35:51.433Z,6.17
2023-11-22T02:38:19.456Z,6.23
2023-11-22T02:40:47.131Z,6.50
2023-11-22T02:43:14.388Z,6.70
2023-11-22T02:45:42.834Z,6.03
2023-11-22T02:48:11.917Z,6.60
2023-11-22T02:50:40.278Z,6.90
2023-11-22T02:53:08.697Z,6.47
2023-11-22T02:55:36.109Z,6.47
2023-11-22T02:58:03.811Z,5.70
2023-11-22T03:00:36.278Z,6.60
2023-11-22T03:03:08.994Z,6.80
2023-11-22T03:05:38.122Z,6.63
2023-11-22T03:08:08.368Z,6.17
2023-11-22T03:10:36.692Z,6.57
2023-11-22T03:13:05.378Z,6.23
2023-11-22T03:15:33.327Z,6.30
2023-11-22T03:18:02.876Z,6.53
2023-11-22T03:20:32.047Z,6.93
2023-11-22T03:22:59.778Z,6.00
2023-11-22T03:25:29.841Z,6.50
2023-11-22T03:27:57.528Z,7.37
2023-11-22T03:30:25.480Z,6.97
2023-11-22T03:32:52.769Z,6.70
2023-11-22T03:35:20.568Z,6.27
2023-11-22T03:37:48.289Z,6.80
2023-11-22T03:40:15.886Z,6.70
2023-11-22T03:42:44.286Z,12.10
2023-11-22T03:45:14.421Z,6.20
2023-11-22T03:47:41.991Z,6.00
2023-11-22T03:50:11.028Z,6.50
2023-11-22T03:52:38.604Z,7.10
2023-11-22T03:55:06.374Z,6.17
2023-11-22T03:57:35.319Z,6.67
2023-11-22T04:00:03.178Z,5.60
2023-11-22T04:02:41.401Z,6.20
2023-11-22T04:05:09.342Z,5.90
2023-11-22T04:07:37.203Z,7.20
2023-11-22T04:10:07.405Z,6.17
2023-11-22T04:12:36.277Z,6.10
2023-11-22T04:15:04.321Z,5.67
2023-11-22T04:17:33.511Z,6.47
2023-11-22T04:20:02.125Z,6.10
2023-11-22T04:22:29.958Z,7.37
2023-11-22T04:24:59.438Z,5.70
2023-11-22T04:27:27.081Z,6.30
2023-11-22T04:29:54.422Z,5.50
2023-11-22T04:32:23.417Z,5.80
2023-11-22T04:34:51.252Z,5.60
2023-11-22T04:37:19.801Z,5.23
2023-11-22T04:39:50.773Z,5.90
2023-11-22T04:42:20.915Z,5.67
2023-11-22T04:44:48.355Z,6.77
2023-11-22T04:47:15.889Z,5.80
2023-11-22T04:49:43.366Z,5.27
2023-11-22T04:52:11.971Z,6.47
2023-11-22T04:54:39.260Z,5.67
2023-11-22T04:57:07.186Z,6.07
2023-11-22T04:59:34.482Z,5.97
2023-11-22T05:02:01.850Z,6.30
2023-11-22T05:04:29.612Z,5.97
2023-11-22T05:06:57.718Z,5.87
2023-11-22T05:09:25.429Z,5.73
2023-11-22T05:11:53.698Z,5.33
2023-11-22T05:14:21.354Z,5.87
2023-11-22T05:16:49.179Z,6.07
2023-11-22T05:19:19.442Z,5.40
2023-11-22T05:21:46.998Z,6.17
2023-11-22T05:24:16.625Z,6.53
2023-11-22T05:26:44.204Z,5.80
2023-11-22T05:29:11.467Z,5.00
2023-11-22T05:31:39.572Z,5.70
2023-11-22T05:34:07.126Z,5.77
2023-11-22T05:36:34.714Z,5.77
2023-11-22T05:39:05.063Z,5.07
2023-11-22T05:41:32.674Z,5.87
2023-11-22T05:44:00.063Z,5.60
2023-11-22T05:46:27.620Z,5.70
2023-11-22T05:48:56.544Z,5.20
2023-11-22T05:51:23.998Z,5.40
2023-11-22T05:53:51.557Z,5.77
2023-11-22T05:56:20.398Z,5.10
2023-11-22T05:58:47.865Z,5.80
2023-11-22T06:01:15.267Z,5.40
2023-11-22T06:03:42.679Z,5.97
2023-11-22T06:06:10.102Z,6.63
2023-11-22T06:08:37.792Z,6.27
2023-11-22T06:11:05.966Z,6.33
2023-11-22T06:13:33.245Z,5.20
2023-11-22T06:16:04.179Z,5.73
2023-11-22T06:18:32.100Z,5.53
2023-11-22T06:20:59.699Z,6.20
2023-11-22T06:23:27.311Z,6.43
2023-11-22T06:25:55.215Z,5.63
2023-11-22T06:28:23.633Z,6.33
2023-11-22T06:30:51.545Z,5.40
2023-11-22T06:33:18.982Z,5.70
2023-11-22T06:35:47.128Z,5.17
2023-11-22T06:38:14.524Z,5.57
2023-11-22T06:40:41.985Z,6.20
2023-11-22T06:43:09.610Z,5.93
2023-11-22T06:45:37.125Z,6.27
2023-11-22T06:48:05.897Z,6.57
2023-11-22T06:50:33.371Z,5.97
2023-11-22T06:53:00.831Z,6.13
2023-11-22T06:55:29.447Z,5.73
2023-11-22T06:57:57.652Z,5.83
2023-11-22T07:00:28.569Z,5.63
2023-11-22T07:02:55.981Z,5.80
2023-11-22T07:05:25.109Z,5.40
2023-11-22T07:07:55.174Z,6.00
2023-11-22T07:10:23.648Z,5.80
2023-11-22T07:12:52.303Z,6.60
2023-11-22T07:15:20.279Z,5.63
2023-11-22T07:17:48.605Z,5.43
2023-11-22T07:20:18.236Z,5.90
2023-11-22T07:22:45.884Z,6.40
2023-11-22T07:25:25.733Z,4.93
2023-11-22T07:27:54.454Z,6.00
2023-11-22T07:30:23.901Z,6.10
2023-11-22T07:32:53.273Z,7.83
2023-11-22T07:35:23.800Z,5.60
2023-11-22T07:37:53.000Z,5.63
2023-11-22T07:40:20.305Z,4.73
2023-11-22T07:42:47.519Z,5.63
2023-11-22T07:45:17.181Z,5.30
2023-11-22T07:47:44.801Z,5.03
2023-11-22T07:50:12.643Z,5.67
2023-11-22T07:52:42.339Z,5.90
2023-11-22T07:55:11.102Z,4.90
2023-11-22T07:57:41.952Z,5.03
2023-11-22T08:00:10.195Z,5.43
2023-11-22T08:02:40.229Z,5.60
2023-11-22T08:05:10.695Z,6.17
2023-11-22T08:07:42.535Z,5.73
2023-11-22T08:10:10.922Z,5.63
2023-11-22T08:12:41.904Z,5.70
2023-11-22T08:15:10.722Z,5.80
2023-11-22T08:17:37.974Z,6.17
2023-11-22T08:20:09.567Z,7.13
2023-11-22T08:22:38.752Z,5.87
2023-11-22T08:25:06.407Z,7.20
2023-11-22T08:27:33.682Z,5.53
2023-11-22T08:30:05.947Z,5.00
2023-11-22T08:32:34.091Z,5.40
2023-11-22T08:35:01.785Z,6.10
2023-11-22T08:37:30.473Z,5.63
2023-11-22T08:39:57.673Z,5.87
2023-11-22T08:42:24.870Z,6.33
2023-11-22T08:44:52.329Z,5.50
2023-11-22T08:47:19.587Z,5.37
2023-11-22T08:49:49.331Z,6.00
2023-11-22T08:52:18.252Z,5.73
2023-11-22T08:54:46.305Z,5.93
2023-11-22T08:57:13.607Z,7.00
2023-11-22T08:59:40.984Z,6.10
2023-11-22T09:02:09.493Z,5.10
2023-11-22T09:04:36.743Z,5.83
2023-11-22T09:07:04.560Z,5.30
2023-11-22T09:09:32.141Z,6.30
2023-11-22T09:11:59.917Z,5.60
2023-11-22T09:14:27.366Z,8.33
2023-11-22T09:16:55.387Z,6.23
2023-11-22T09:19:23.157Z,7.03
2023-11-22T09:21:50.715Z,5.83
2023-11-22T09:24:17.939Z,5.67
2023-11-22T09:26:45.369Z,5.90
2023-11-22T09:29:15.118Z,4.80
2023-11-22T09:31:47.833Z,6.33
2023-11-22T09:34:15.283Z,6.73
2023-11-22T09:36:42.746Z,5.60
2023-11-22T09:39:09.993Z,6.40
2023-11-22T09:41:38.709Z,5.10
2023-11-22T09:44:06.506Z,5.33
2023-11-22T09:46:35.484Z,4.67
2023-11-22T09:49:04.092Z,8.27
2023-11-22T09:51:33.421Z,9.60
2023-11-22T09:54:05.508Z,4.40
2023-11-22T09:56:37.958Z,5.40
2023-11-22T09:59:05.839Z,5.80
2023-11-22T10:01:37.458Z,5.27
2023-11-22T10:04:08.629Z,5.33
2023-11-22T10:06:36.744Z,8.90
2023-11-22T10:09:08.623Z,5.10
2023-11-22T10:11:43.329Z,5.17
2023-11-22T10:14:24.926Z,5.97
2023-11-22T10:17:02.064Z,4.90
2023-11-22T10:19:31.267Z,4.90
2023-11-22T10:22:07.577Z,5.97
2023-11-22T10:24:35.585Z,5.80
2023-11-22T10:27:03.228Z,5.77
2023-11-22T10:29:30.866Z,5.87
2023-11-22T10:31:58.565Z,5.00
2023-11-22T10:34:26.596Z,5.10
2023-11-22T10:36:56.968Z,5.00
2023-11-22T10:39:27.006Z,6.57
2023-11-22T10:41:54.300Z,4.60
2023-11-22T10:44:22.995Z,5.10
2023-11-22T10:46:51.923Z,5.40
2023-11-22T10:49:20.633Z,5.10
2023-11-22T10:51:51.510Z,5.70
2023-11-22T10:54:19.667Z,5.00
2023-11-22T10:56:48.303Z,5.47
2023-11-22T10:59:16.128Z,5.00
2023-11-22T11:01:50.440Z,5.23
2023-11-22T11:04:22.303Z,5.57
2023-11-22T11:06:52.816Z,4.73
2023-11-22T11:09:23.320Z,5.60
2023-11-22T11:11:50.629Z,5.40
2023-11-22T11:14:18.674Z,6.23
2023-11-22T11:16:49.017Z,5.30
2023-11-22T11:19:18.564Z,5.03
2023-11-22T11:21:49.063Z,4.93
2023-11-22T11:24:16.850Z,9.10
2023-11-22T11:26:53.051Z,4.80
2023-11-22T11:29:33.672Z,5.53
2023-11-22T11:32:03.941Z,4.90
2023-11-22T11:34:33.518Z,5.47
2023-11-22T11:37:01.714Z,5.40
2023-11-22T11:39:32.690Z,5.27
2023-11-22T11:42:17.076Z,5.83
2023-11-22T11:45:06.763Z,4.47
2023-11-22T11:47:34.790Z,5.13
2023-11-22T11:50:02.741Z,5.37
2023-11-22T11:52:32.163Z,5.33
2023-11-22T11:55:00.572Z,5.00
2023-11-22T11:57:32.042Z,6.27
2023-11-22T12:00:00.513Z,4.70
2023-11-22T12:02:28.057Z,5.20
2023-11-22T12:04:55.823Z,4.60
2023-11-22T12:07:23.062Z,4.97
2023-11-22T12:09:50.220Z,4.70
2023-11-22T12:12:18.450Z,4.90
2023-11-22T12:14:45.882Z,5.20
2023-11-22T12:17:13.117Z,4.80
2023-11-22T12:19:40.360Z,5.60
2023-11-22T12:22:09.390Z,5.23
2023-11-22T12:24:36.728Z,6.07
2023-11-22T12:27:04.995Z,5.20
2023-11-22T12:29:32.355Z,6.60
2023-11-22T12:32:00.721Z,5.63
2023-11-22T12:34:31.812Z,5.63
2023-11-22T12:36:59.768Z,5.77
2023-11-22T12:39:27.256Z,5.23
2023-11-22T12:42:02.142Z,5.60
2023-11-22T12:44:53.745Z,5.60
2023-11-22T12:47:37.608Z,6.10
2023-11-22T12:50:05.212Z,5.10
2023-11-22T12:52:33.721Z,5.50
2023-11-22T12:55:00.995Z,5.70
2023-11-22T12:57:28.244Z,5.63
2023-11-22T12:59:55.451Z,5.10
2023-11-22T13:02:22.853Z,5.93
2023-11-22T13:04:50.537Z,4.80
2023-11-22T13:07:18.384Z,5.10
2023-11-22T13:09:45.560Z,5.10
2023-11-22T13:12:12.759Z,5.10
2023-11-22T13:14:40.734Z,5.67
2023-11-22T13:17:08.335Z,6.53
2023-11-22T13:19:38.449Z,4.80
2023-11-22T13:22:07.491Z,6.47
2023-11-22T13:24:34.689Z,6.53
2023-11-22T13:27:01.898Z,5.03
2023-11-22T13:29:29.138Z,5.40
2023-11-22T13:31:56.887Z,5.00
2023-11-22T13:34:24.496Z,7.83
2023-11-22T13:36:51.751Z,5.60
2023-11-22T13:39:19.008Z,7.37
2023-11-22T13:41:48.117Z,5.90
2023-11-22T13:44:15.483Z,5.27
2023-11-22T13:46:43.627Z,5.17
2023-11-22T13:49:11.734Z,4.90
2023-11-22T13:51:39.530Z,5.17
2023-11-22T13:54:06.884Z,5.50
2023-11-22T13:56:35.169Z,5.40
2023-11-22T13:59:02.770Z,4.77
2023-11-22T14:01:29.985Z,5.00
2023-11-22T14:03:57.960Z,4.80
2023-11-22T14:06:25.396Z,5.67
2023-11-22T14:08:53.582Z,5.43
2023-11-22T14:11:22.404Z,4.77
2023-11-22T14:13:49.945Z,6.00
2023-11-22T14:16:17.324Z,6.47
2023-11-22T14:18:44.637Z,5.20
2023-11-22T14:21:12.194Z,6.47
2023-11-22T14:23:39.532Z,5.80
2023-11-22T14:26:07.819Z,5.67
2023-11-22T14:28:35.081Z,5.20
2023-11-22T14:31:02.712Z,6.07
2023-11-22T14:33:33.093Z,5.00
2023-11-22T14:36:00.915Z,5.80
2023-11-22T14:38:28.193Z,5.60
2023-11-22T14:40:55.520Z,5.43
2023-11-22T14:43:22.743Z,5.60
2023-11-22T14:45:50.010Z,5.20
2023-11-22T14:48:19.046Z,5.20
2023-11-22T14:50:47.646Z,5.83
2023-11-22T14:53:14.896Z,9.67
2023-11-22T14:55:43.316Z,6.10
2023-11-22T14:58:10.945Z,7.40
2023-11-22T15:00:38.417Z,6.50
2023-11-22T15:03:08.769Z,6.00
2023-11-22T15:05:36.339Z,5.20
2023-11-22T15:08:05.008Z,6.17
2023-11-22T15:10:32.237Z,5.77
2023-11-22T15:12:59.744Z,6.50
2023-11-22T15:15:27.603Z,5.77
2023-11-22T15:17:55.785Z,5.33
2023-11-22T15:20:23.672Z,5.50
2023-11-22T15:22:51.375Z,5.50
2023-11-22T15:25:18.989Z,5.67
2023-11-22T15:27:48.343Z,6.23
2023-11-22T15:30:17.741Z,6.10
2023-11-22T15:32:45.118Z,6.30
2023-11-22T15:35:12.868Z,6.20
2023-11-22T15:37:40.053Z,6.43
2023-11-22T15:40:11.641Z,6.00
2023-11-22T15:42:38.877Z,6.50
2023-11-22T15:45:08.219Z,7.50
2023-11-22T15:47:38.193Z,8.10
2023-11-22T15:50:08.133Z,6.30
2023-11-22T15:52:35.349Z,5.70
2023-11-22T15:55:09.934Z,5.93
2023-11-22T15:57:37.352Z,7.80
2023-11-22T16:00:11.793Z,7.07
2023-11-22T16:02:39.347Z,5.57
2023-11-22T16:05:09.122Z,5.90
2023-11-22T16:07:39.683Z,5.10
2023-11-22T16:10:09.250Z,5.90
2023-11-22T16:12:36.554Z,5.47
2023-11-22T16:15:04.093Z,6.23
2023-11-22T16:17:34.559Z,5.80
2023-11-22T16:20:04.887Z,6.10
2023-11-22T16:22:32.337Z,6.93
2023-11-22T16:24:59.881Z,7.40
2023-11-22T16:27:27.780Z,7.20
2023-11-22T16:29:55.074Z,7.50
2023-11-22T16:32:22.410Z,6.90
2023-11-22T16:34:50.957Z,6.90
2023-11-22T16:37:19.282Z,7.80
2023-11-22T16:39:46.816Z,7.50
2023-11-22T16:42:15.060Z,8.30
2023-11-22T16:44:44.101Z,7.33
2023-11-22T16:47:13.513Z,7.67
2023-11-22T16:49:48.621Z,7.23
2023-11-22T16:52:16.173Z,6.90
2023-11-22T16:54:43.768Z,8.77
2023-11-22T16:57:13.850Z,7.67
2023-11-22T16:59:41.316Z,7.67
2023-11-22T17:02:09.136Z,7.60
2023-11-22T17:04:37.426Z,7.80
2023-11-22T17:07:04.798Z,8.67
2023-11-22T17:09:32.938Z,8.40
2023-11-22T17:12:00.243Z,8.90
2023-11-22T17:14:28.869Z,7.83
2023-11-22T17:16:56.149Z,7.93
2023-11-22T17:19:23.364Z,7.13
2023-11-22T17:21:50.581Z,7.10
2023-11-22T17:24:19.662Z,8.00
2023-11-22T17:26:46.986Z,7.63
2023-11-22T17:29:16.156Z,7.80
2023-11-22T17:31:43.740Z,7.03
2023-11-22T17:34:11.237Z,7.23
2023-11-22T17:36:38.502Z,7.90
2023-11-22T17:39:05.844Z,7.07
2023-11-22T17:41:34.510Z,7.10
2023-11-22T17:44:01.770Z,8.03
2023-11-22T17:46:30.822Z,7.47
2023-11-22T17:48:58.190Z,7.60
2023-11-22T17:51:25.462Z,7.10
2023-11-22T17:53:52.729Z,8.93
2023-11-22T17:56:20.004Z,7.57
2023-11-22T17:58:47.331Z,7.97
2023-11-22T18:01:14.664Z,7.50
2023-11-22T18:03:43.065Z,7.67
2023-11-22T18:06:10.840Z,9.53
2023-11-22T18:08:38.314Z,9.50
2023-11-22T18:11:06.365Z,7.90
2023-11-22T18:13:34.640Z,8.90
2023-11-22T18:16:01.878Z,9.57
2023-11-22T18:18:29.204Z,9.23
2023-11-22T18:20:56.490Z,8.87
2023-11-22T18:23:26.079Z,9.67
2023-11-22T18:25:53.391Z,7.60
2023-11-22T18:28:21.349Z,7.90
2023-11-22T18:30:48.608Z,9.43
2023-11-22T18:33:15.866Z,7.43
2023-11-22T18:35:43.146Z,7.60
2023-11-22T18:38:10.412Z,8.10
2023-11-22T18:40:37.653Z,7.20
2023-11-22T18:43:06.999Z,7.37
2023-11-22T18:45:34.217Z,8.03
2023-11-22T18:48:03.668Z,8.47
2023-11-22T18:50:31.036Z,7.30
2023-11-22T18:52:58.281Z,8.40
2023-11-22T18:55:25.474Z,7.83
2023-11-22T18:57:54.110Z,8.07
2023-11-22T19:00:21.480Z,7.60
2023-11-22T19:02:48.689Z,8.00
2023-11-22T19:05:16.009Z,9.47
2023-11-22T19:07:43.396Z,7.70
2023-11-22T19:10:10.912Z,8.17
2023-11-22T19:12:38.498Z,8.13
2023-11-22T19:15:08.377Z,7.23
2023-11-22T19:17:35.975Z,7.67
2023-11-22T19:20:04.348Z,7.60
2023-11-22T19:22:31.529Z,7.70
2023-11-22T19:24:58.702Z,7.70
2023-11-22T19:27:26.272Z,9.20
2023-11-22T19:29:53.500Z,8.27
2023-11-22T19:32:21.483Z,8.43
2023-11-22T19:34:48.729Z,8.50
2023-11-22T19:37:16.876Z,8.40
2023-11-22T19:39:44.082Z,7.90
2023-11-22T19:42:11.452Z,8.40
2023-11-22T19:44:38.640Z,7.40
2023-11-22T19:47:05.912Z,8.70
2023-11-22T19:49:33.126Z,9.23
2023-11-22T19:52:00.667Z,9.10
2023-11-22T19:54:27.884Z,7.93
2023-11-22T19:56:55.138Z,8.57
2023-11-22T19:59:22.613Z,8.40
2023-11-22T20:01:50.501Z,8.60
2023-11-22T20:04:18.019Z,8.50
2023-11-22T20:06:49.267Z,8.43
2023-11-22T20:09:16.598Z,7.60
2023-11-22T20:11:44.043Z,9.07
2023-11-22T20:14:11.418Z,7.87
2023-11-22T20:16:38.774Z,8.33
2023-11-22T20:19:06.054Z,8.77
2023-11-22T20:21:33.294Z,8.47
2023-11-22T20:24:00.583Z,10.10
2023-11-22T20:26:27.842Z,8.77
2023-11-22T20:28:57.890Z,9.20
2023-11-22T20:31:25.322Z,8.83
2023-11-22T20:33:52.558Z,9.17
2023-11-22T20:36:19.828Z,9.70
2023-11-22T20:38:50.984Z,10.17
2023-11-22T20:41:22.104Z,10.10
2023-11-22T20:43:49.789Z,9.20
2023-11-22T20:46:17.087Z,9.93
2023-11-22T20:48:45.475Z,9.63
2023-11-22T20:51:12.811Z,9.30
2023-11-22T20:53:40.095Z,9.47
2023-11-22T20:56:07.685Z,9.67
2023-11-22T20:58:35.029Z,10.40
2023-11-22T21:01:02.261Z,9.60
2023-11-22T21:03:29.664Z,12.20
2023-11-22T21:05:58.464Z,9.93
2023-11-22T21:08:25.701Z,9.20
2023-11-22T21:10:52.916Z,11.27
2023-11-22T21:13:21.226Z,9.63
2023-11-22T21:15:48.550Z,9.80
2023-11-22T21:18:15.913Z,9.43
2023-11-22T21:20:43.316Z,11.00
2023-11-22T21:23:10.700Z,10.20
2023-11-22T21:25:38.516Z,9.93
2023-11-22T21:28:05.851Z,11.37
2023-11-22T21:30:33.048Z,10.23
2023-11-22T21:33:00.548Z,10.00
2023-11-22T21:35:27.918Z,10.80
2023-11-22T21:37:55.165Z,10.83
2023-11-22T21:40:23.329Z,9.33
2023-11-22T21:42:50.582Z,9.87
2023-11-22T21:45:17.878Z,10.43
2023-11-22T21:47:45.303Z,11.27
2023-11-22T21:50:16.489Z,10.83
2023-11-22T21:52:43.992Z,11.10
2023-11-22T21:55:12.724Z,10.70
2023-11-22T21:57:39.991Z,10.53
2023-11-22T22:00:09.420Z,11.00
2023-11-22T22:02:36.924Z,11.20
2023-11-22T22:05:06.938Z,10.03
2023-11-22T22:07:34.314Z,10.60
2023-11-22T22:10:03.869Z,10.23
2023-11-22T22:12:32.505Z,10.10
2023-11-22T22:14:59.756Z,11.30
2023-11-22T22:17:27.151Z,11.93
2023-11-22T22:19:54.332Z,10.57
2023-11-22T22:22:22.473Z,11.37
2023-11-22T22:24:49.756Z,11.63
2023-11-22T22:27:17.037Z,10.93
2023-11-22T22:29:44.335Z,10.50
2023-11-22T22:32:11.903Z,11.10
2023-11-22T22:34:39.539Z,10.53
2023-11-22T22:37:06.777Z,11.13
2023-11-22T22:39:34.962Z,10.70
2023-11-22T22:42:02.388Z,11.10
2023-11-22T22:44:29.949Z,11.30
2023-11-22T22:46:57.183Z,11.57
2023-11-22T22:49:25.341Z,10.60
2023-11-22T22:52:03.490Z,12.60
2023-11-22T22:54:37.477Z,11.43
2023-11-22T22:57:07.125Z,12.00
2023-11-22T22:59:34.610Z,10.73
2023-11-22T23:02:02.626Z,12.20
2023-11-22T23:04:30.600Z,11.90
2023-11-22T23:06:57.836Z,11.20
2023-11-22T23:09:26.750Z,10.30
2023-11-22T23:11:54.258Z,10.93
2023-11-22T23:14:21.542Z,11.90
2023-11-22T23:16:50.061Z,11.70
2023-11-22T23:19:17.410Z,11.20
2023-11-22T23:21:47.327Z,11.93
2023-11-22T23:24:15.677Z,11.73
2023-11-22T23:26:43.609Z,11.77
2023-11-22T23:29:13.168Z,11.27
2023-11-22T23:31:42.359Z,11.37
2023-11-22T23:34:09.614Z,11.10
2023-11-22T23:36:39.356Z,12.70
2023-11-22T23:39:06.594Z,11.60
2023-11-22T23:41:35.242Z,10.97
2023-11-22T23:44:03.782Z,10.73
2023-11-22T23:46:36.315Z,11.00
2023-11-22T23:49:06.163Z,12.23
2023-11-22T23:51:33.383Z,11.77
2023-11-22T23:54:02.151Z,10.77
2023-11-22T23:56:29.422Z,10.73
2023-11-22T23:58:56.919Z,12.40
